createdAt,value
2022-08-30T00:00:55.924Z,97246.69
2022-08-30T00:01:58.073Z,97250.94
2022-08-30T00:03:01.328Z,97249.09
2022-08-30T00:04:03.610Z,97250.69
2022-08-30T00:05:05.746Z,97251.47
2022-08-30T00:06:08.603Z,97246.94
2022-08-30T00:07:10.382Z,97252.22
2022-08-30T00:08:12.807Z,97251.19
2022-08-30T00:09:15.462Z,97251.97
2022-08-30T00:10:17.497Z,97249.09
2022-08-30T00:11:21.725Z,97252.78
2022-08-30T00:12:23.548Z,97249.56
2022-08-30T00:13:25.368Z,97249.56
2022-08-30T00:14:27.791Z,97252.22
2022-08-30T00:15:30.566Z,97241.41
2022-08-30T00:16:32.368Z,97244.63
2022-08-30T00:17:34.186Z,97244.38
2022-08-30T00:18:36.678Z,97249.41
2022-08-30T00:19:38.584Z,97244.13
2022-08-30T00:20:40.474Z,97241.25
2022-08-30T00:21:42.307Z,97248.16
2022-08-30T00:22:44.706Z,97244.44
2022-08-30T00:23:46.536Z,97245.75
2022-08-30T00:24:49.727Z,97249.41
2022-08-30T00:25:51.950Z,97248.63
2022-08-30T00:26:53.859Z,97249.16
2022-08-30T00:27:55.758Z,97242.06
2022-08-30T00:28:57.587Z,97242.06
2022-08-30T00:29:59.517Z,97241.00
2022-08-30T00:31:02.543Z,97255.00
2022-08-30T00:32:04.802Z,97240.22
2022-08-30T00:33:06.606Z,97244.13
2022-08-30T00:34:08.451Z,97249.09
2022-08-30T00:35:12.302Z,97244.28
2022-08-30T00:36:14.156Z,97251.19
2022-08-30T00:37:16.389Z,97243.00
2022-08-30T00:38:18.287Z,97245.41
2022-08-30T00:39:20.104Z,97247.03
2022-08-30T00:40:27.228Z,97247.81
2022-08-30T00:41:29.618Z,97243.34
2022-08-30T00:42:31.878Z,97243.34
2022-08-30T00:43:36.594Z,97240.69
2022-08-30T00:44:39.162Z,97238.28
2022-08-30T00:45:41.408Z,97231.66
2022-08-30T00:46:43.373Z,97234.84
2022-08-30T00:47:45.907Z,97236.69
2022-08-30T00:48:49.367Z,97231.66
2022-08-30T00:49:53.330Z,97219.50
2022-08-30T00:50:58.231Z,97234.53
2022-08-30T00:52:00.820Z,97235.91
2022-08-30T00:53:04.955Z,97234.84
2022-08-30T00:54:07.452Z,97234.63
2022-08-30T00:55:10.216Z,97228.28
2022-08-30T00:56:12.771Z,97229.09
2022-08-30T00:57:15.365Z,97230.69
2022-08-30T00:58:22.086Z,97231.25
2022-08-30T00:59:24.585Z,97230.22
2022-08-30T01:00:26.958Z,97228.03
2022-08-30T01:01:30.410Z,97225.06
2022-08-30T01:02:35.920Z,97224.06
2022-08-30T01:03:39.092Z,97230.13
2022-08-30T01:04:43.326Z,97224.63
2022-08-30T01:05:46.105Z,97228.53
2022-08-30T01:06:48.036Z,97230.63
2022-08-30T01:07:50.660Z,97231.66
2022-08-30T01:08:52.481Z,97221.88
2022-08-30T01:09:54.530Z,97227.97
2022-08-30T01:10:57.594Z,97225.91
2022-08-30T01:11:59.391Z,97230.06
2022-08-30T01:13:01.254Z,97227.88
2022-08-30T01:14:03.584Z,97230.75
2022-08-30T01:15:06.205Z,97226.53
2022-08-30T01:16:08.523Z,97228.94
2022-08-30T01:17:11.546Z,97226.88
2022-08-30T01:18:17.614Z,97232.16
2022-08-30T01:19:36.600Z,97228.44
2022-08-30T01:20:42.104Z,97228.13
2022-08-30T01:21:48.291Z,97232.63
2022-08-30T01:22:50.119Z,97230.53
2022-08-30T01:23:54.313Z,97226.03
2022-08-30T01:24:57.934Z,97222.94
2022-08-30T01:26:00.741Z,97219.50
2022-08-30T01:27:02.522Z,97217.88
2022-08-30T01:28:07.136Z,97218.69
2022-08-30T01:29:12.200Z,97219.75
2022-08-30T01:30:14.258Z,97217.66
2022-08-30T01:31:16.334Z,97217.41
2022-08-30T01:32:21.132Z,97215.56
2022-08-30T01:33:24.174Z,97219.00
2022-08-30T01:34:26.321Z,97212.94
2022-08-30T01:35:28.390Z,97227.47
2022-08-30T01:36:30.641Z,97217.41
2022-08-30T01:37:33.504Z,97217.66
2022-08-30T01:38:37.032Z,97212.28
2022-08-30T01:39:39.199Z,97214.91
2022-08-30T01:40:41.047Z,97218.63
2022-08-30T01:41:43.967Z,97220.19
2022-08-30T01:42:46.261Z,97209.41
2022-08-30T01:43:49.231Z,97213.66
2022-08-30T01:44:51.260Z,97218.44
2022-08-30T01:45:53.174Z,97216.59
2022-08-30T01:46:55.621Z,97220.63
2022-08-30T01:47:57.451Z,97219.00
2022-08-30T01:49:06.246Z,97217.66
2022-08-30T01:50:08.834Z,97218.84
2022-08-30T01:51:12.378Z,97220.94
2022-08-30T01:52:15.029Z,97210.94
2022-08-30T01:53:16.996Z,97222.28
2022-08-30T01:54:19.008Z,97221.72
2022-08-30T01:55:20.995Z,97223.09
2022-08-30T01:56:23.680Z,97227.56
2022-08-30T01:57:27.142Z,97220.19
2022-08-30T01:58:29.003Z,97223.97
2022-08-30T01:59:31.138Z,97215.81
2022-08-30T02:00:33.143Z,97225.25
2022-08-30T02:01:37.227Z,97216.44
2022-08-30T02:02:39.523Z,97222.53
2022-08-30T02:03:43.838Z,97214.63
2022-08-30T02:04:46.133Z,97217.00
2022-08-30T02:05:48.841Z,97214.91
2022-08-30T02:06:51.051Z,97209.41
2022-08-30T02:07:53.274Z,97212.59
2022-08-30T02:08:55.153Z,97214.22
2022-08-30T02:09:57.105Z,97211.81
2022-08-30T02:11:00.289Z,97213.41
2022-08-30T02:12:02.159Z,97209.72
2022-08-30T02:13:03.982Z,97209.72
2022-08-30T02:14:06.615Z,97214.69
2022-08-30T02:15:10.089Z,97208.84
2022-08-30T02:16:16.373Z,97213.09
2022-08-30T02:17:19.657Z,97208.84
2022-08-30T02:18:22.219Z,97212.06
2022-08-30T02:19:24.133Z,97210.19
2022-08-30T02:20:25.967Z,97208.84
2022-08-30T02:21:30.774Z,97214.06
2022-08-30T02:22:33.097Z,97216.44
2022-08-30T02:23:35.284Z,97214.63
2022-08-30T02:24:37.161Z,97212.00
2022-08-30T02:25:39.245Z,97218.28
2022-08-30T02:26:41.131Z,97206.16
2022-08-30T02:27:42.973Z,97213.25
2022-08-30T02:28:49.980Z,97215.00
2022-08-30T02:29:52.222Z,97209.97
2022-08-30T02:30:54.499Z,97207.66
2022-08-30T02:31:56.486Z,97212.38
2022-08-30T02:32:58.467Z,97213.16
2022-08-30T02:34:00.261Z,97209.72
2022-08-30T02:35:02.069Z,97211.31
2022-08-30T02:36:04.805Z,97210.88
2022-08-30T02:37:06.793Z,97210.31
2022-08-30T02:38:09.128Z,97216.59
2022-08-30T02:39:11.971Z,97219.16
2022-08-30T02:40:13.832Z,97205.88
2022-08-30T02:41:15.838Z,97209.06
2022-08-30T02:42:17.764Z,97208.28
2022-08-30T02:43:19.798Z,97210.13
2022-08-30T02:44:21.837Z,97209.78
2022-08-30T02:45:24.468Z,97203.69
2022-08-30T02:46:27.364Z,97198.91
2022-08-30T02:47:35.289Z,97212.66
2022-08-30T02:48:37.184Z,97206.34
2022-08-30T02:49:38.999Z,97205.88
2022-08-30T02:50:44.598Z,97212.75
2022-08-30T02:51:46.419Z,97210.91
2022-08-30T02:52:48.532Z,97212.75
2022-08-30T02:53:50.303Z,97225.69
2022-08-30T02:54:52.125Z,97214.13
2022-08-30T02:55:53.974Z,97212.75
2022-08-30T02:56:56.418Z,97217.22
2022-08-30T02:57:58.256Z,97214.81
2022-08-30T02:59:00.100Z,97214.81
2022-08-30T03:00:02.110Z,97219.06
2022-08-30T03:01:05.997Z,97214.81
2022-08-30T03:02:07.938Z,97215.63
2022-08-30T03:03:10.140Z,97218.03
2022-08-30T03:04:12.015Z,97212.75
2022-08-30T03:05:14.715Z,97215.41
2022-08-30T03:06:16.528Z,97212.75
2022-08-30T03:07:18.735Z,97210.34
2022-08-30T03:08:20.656Z,97206.91
2022-08-30T03:09:22.817Z,97208.28
2022-08-30T03:10:24.639Z,97200.59
2022-08-30T03:11:26.965Z,97200.59
2022-08-30T03:12:28.902Z,97204.59
2022-08-30T03:13:30.781Z,97202.75
2022-08-30T03:14:33.150Z,97208.03
2022-08-30T03:15:35.656Z,97199.56
2022-08-30T03:16:37.541Z,97199.31
2022-08-30T03:17:39.837Z,97202.50
2022-08-30T03:18:43.840Z,97201.47
2022-08-30T03:19:46.363Z,97200.41
2022-08-30T03:20:53.987Z,97200.59
2022-08-30T03:21:56.866Z,97199.69
2022-08-30T03:22:58.756Z,97202.00
2022-08-30T03:24:00.634Z,97201.00
2022-08-30T03:25:02.825Z,97204.19
2022-08-30T03:26:04.776Z,97206.50
2022-08-30T03:27:07.861Z,97205.16
2022-08-30T03:28:09.760Z,97204.09
2022-08-30T03:29:11.630Z,97202.28
2022-08-30T03:30:14.068Z,97205.72
2022-08-30T03:31:15.926Z,97204.91
2022-08-30T03:32:17.939Z,97207.28
2022-08-30T03:33:20.164Z,97199.94
2022-08-30T03:34:24.949Z,97203.41
2022-08-30T03:35:26.895Z,97200.50
2022-08-30T03:36:31.650Z,97205.22
2022-08-30T03:37:33.935Z,97197.22
2022-08-30T03:38:36.107Z,97205.72
2022-08-30T03:39:38.424Z,97201.22
2022-08-30T03:40:40.335Z,97201.22
2022-08-30T03:41:42.426Z,97202.56
2022-08-30T03:42:44.598Z,97202.56
2022-08-30T03:43:49.516Z,97204.19
2022-08-30T03:44:52.685Z,97192.84
2022-08-30T03:45:54.567Z,97198.13
2022-08-30T03:46:56.883Z,97200.44
2022-08-30T03:47:59.327Z,97201.22
2022-08-30T03:49:01.854Z,97198.81
2022-08-30T03:50:05.278Z,97198.03
2022-08-30T03:51:07.266Z,97203.31
2022-08-30T03:52:09.127Z,97205.94
2022-08-30T03:53:10.932Z,97201.44
2022-08-30T03:54:12.725Z,97203.53
2022-08-30T03:55:15.125Z,97196.66
2022-08-30T03:56:17.541Z,97205.06
2022-08-30T03:57:19.853Z,97199.78
2022-08-30T03:58:22.423Z,97207.47
2022-08-30T03:59:24.441Z,97209.88
2022-08-30T04:00:26.898Z,97209.22
2022-08-30T04:01:28.757Z,97208.19
2022-08-30T04:02:30.695Z,97208.19
2022-08-30T04:03:32.610Z,97205.53
2022-08-30T04:04:34.559Z,97202.00
2022-08-30T04:05:36.434Z,97208.91
2022-08-30T04:06:38.245Z,97198.66
2022-08-30T04:07:40.315Z,97206.56
2022-08-30T04:08:43.445Z,97206.81
2022-08-30T04:09:47.591Z,97205.53
2022-08-30T04:10:49.706Z,97212.41
2022-08-30T04:11:51.566Z,97198.66
2022-08-30T04:12:53.482Z,97214.66
2022-08-30T04:13:57.033Z,97215.13
2022-08-30T04:14:58.974Z,97210.41
2022-08-30T04:16:00.967Z,97213.06
2022-08-30T04:17:02.830Z,97210.97
2022-08-30T04:18:04.650Z,97214.66
2022-08-30T04:19:06.476Z,97215.94
2022-08-30T04:20:08.680Z,97214.31
2022-08-30T04:21:14.040Z,97216.94
2022-08-30T04:22:16.227Z,97214.31
2022-08-30T04:23:18.386Z,97213.75
2022-08-30T04:24:20.266Z,97215.59
2022-08-30T04:25:22.138Z,97214.31
2022-08-30T04:26:23.916Z,97221.19
2022-08-30T04:27:31.220Z,97219.13
2022-08-30T04:28:35.326Z,97217.84
2022-08-30T04:29:37.470Z,97215.44
2022-08-30T04:30:40.478Z,97221.03
2022-08-30T04:31:42.525Z,97223.13
2022-08-30T04:32:44.973Z,97227.38
2022-08-30T04:33:46.811Z,97228.72
2022-08-30T04:34:48.685Z,97231.94
2022-08-30T04:35:51.961Z,97231.94
2022-08-30T04:36:55.954Z,97224.75
2022-08-30T04:37:58.775Z,97228.41
2022-08-30T04:39:00.588Z,97223.13
2022-08-30T04:40:02.558Z,97225.53
2022-08-30T04:41:09.777Z,97226.88
2022-08-30T04:42:11.791Z,97228.72
2022-08-30T04:43:13.649Z,97238.22
2022-08-30T04:44:19.202Z,97230.88
2022-08-30T04:45:22.379Z,97235.13
2022-08-30T04:46:24.359Z,97236.16
2022-08-30T04:47:26.351Z,97231.94
2022-08-30T04:48:28.178Z,97234.81
2022-08-30T04:49:32.638Z,97231.53
2022-08-30T04:50:34.520Z,97235.75
2022-08-30T04:51:36.335Z,97235.75
2022-08-30T04:52:38.366Z,97237.38
2022-08-30T04:53:40.827Z,97239.19
2022-08-30T04:54:42.709Z,97233.25
2022-08-30T04:55:44.504Z,97238.78
2022-08-30T04:56:46.374Z,97241.19
2022-08-30T04:57:48.746Z,97236.69
2022-08-30T04:58:53.650Z,97241.50
2022-08-30T04:59:55.670Z,97242.88
2022-08-30T05:00:57.604Z,97248.72
2022-08-30T05:01:59.967Z,97247.09
2022-08-30T05:03:01.945Z,97250.28
2022-08-30T05:04:04.513Z,97245.03
2022-08-30T05:05:25.419Z,97240.22
2022-08-30T05:06:28.292Z,97241.81
2022-08-30T05:07:31.547Z,97242.31
2022-08-30T05:08:33.381Z,97245.97
2022-08-30T05:09:35.256Z,97248.84
2022-08-30T05:10:41.575Z,97254.94
2022-08-30T05:11:43.735Z,97246.19
2022-08-30T05:12:45.579Z,97251.47
2022-08-30T05:13:47.458Z,97254.59
2022-08-30T05:14:49.468Z,97259.09
2022-08-30T05:15:51.442Z,97250.59
2022-08-30T05:16:56.035Z,97257.63
2022-08-30T05:17:57.953Z,97261.28
2022-08-30T05:18:59.983Z,97260.03
2022-08-30T05:20:02.387Z,97257.94
2022-08-30T05:21:11.970Z,97262.75
2022-08-30T05:22:13.907Z,97260.59
2022-08-30T05:23:15.886Z,97263.13
2022-08-30T05:24:17.978Z,97260.41
2022-08-30T05:25:21.649Z,97262.72
2022-08-30T05:26:25.314Z,97266.38
2022-08-30T05:27:27.256Z,97258.94
2022-08-30T05:28:29.099Z,97272.13
2022-08-30T05:29:31.679Z,97268.44
2022-08-30T05:30:34.675Z,97270.84
2022-08-30T05:31:36.752Z,97270.63
2022-08-30T05:32:38.531Z,97271.41
2022-08-30T05:33:40.526Z,97273.81
2022-08-30T05:34:42.340Z,97272.19
2022-08-30T05:35:44.167Z,97278.88
2022-08-30T05:36:46.006Z,97277.25
2022-08-30T05:37:47.860Z,97279.53
2022-08-30T05:38:50.935Z,97279.31
2022-08-30T05:39:52.838Z,97281.50
2022-08-30T05:40:54.712Z,97283.66
2022-08-30T05:41:57.822Z,97274.94
2022-08-30T05:42:59.711Z,97285.28
2022-08-30T05:44:02.801Z,97280.00
2022-08-30T05:45:05.621Z,97284.78
2022-08-30T05:46:08.992Z,97285.13
2022-08-30T05:47:10.958Z,97286.72
2022-08-30T05:48:13.044Z,97281.44
2022-08-30T05:49:15.212Z,97289.13
2022-08-30T05:50:17.175Z,97290.47
2022-08-30T05:51:20.517Z,97293.13
2022-08-30T05:52:22.334Z,97298.88
2022-08-30T05:53:24.554Z,97300.25
2022-08-30T05:54:26.383Z,97295.28
2022-08-30T05:55:28.206Z,97293.56
2022-08-30T05:56:37.104Z,97290.69
2022-08-30T05:57:40.220Z,97297.56
2022-08-30T05:58:42.410Z,97294.91
2022-08-30T05:59:44.761Z,97301.47
2022-08-30T06:00:46.886Z,97291.72
2022-08-30T06:01:48.718Z,97290.94
2022-08-30T06:02:53.604Z,97290.69
2022-08-30T06:04:00.352Z,97297.56
2022-08-30T06:05:05.379Z,97296.53
2022-08-30T06:06:07.695Z,97300.69
2022-08-30T06:07:11.717Z,97296.19
2022-08-30T06:08:16.542Z,97298.72
2022-08-30T06:09:18.895Z,97294.84
2022-08-30T06:10:20.737Z,97297.22
2022-08-30T06:11:23.844Z,97305.25
2022-08-30T06:12:26.160Z,97304.19
2022-08-30T06:13:28.005Z,97304.75
2022-08-30T06:14:29.844Z,97298.47
2022-08-30T06:15:31.700Z,97302.84
2022-08-30T06:16:34.035Z,97298.34
2022-08-30T06:17:36.188Z,97304.19
2022-08-30T06:18:37.989Z,97305.56
2022-08-30T06:19:40.235Z,97291.81
2022-08-30T06:20:43.104Z,97294.75
2022-08-30T06:21:48.047Z,97297.91
2022-08-30T06:22:49.905Z,97295.81
2022-08-30T06:23:52.316Z,97303.25
2022-08-30T06:24:57.429Z,97296.63
2022-08-30T06:26:04.901Z,97300.53
2022-08-30T06:27:06.803Z,97299.47
2022-08-30T06:28:08.739Z,97296.38
2022-08-30T06:29:12.257Z,97301.16
2022-08-30T06:30:14.264Z,97298.31
2022-08-30T06:31:17.257Z,97294.16
2022-08-30T06:32:19.375Z,97298.63
2022-08-30T06:33:21.177Z,97294.47
2022-08-30T06:34:23.155Z,97296.41
2022-08-30T06:35:25.750Z,97292.50
2022-08-30T06:36:27.655Z,97298.41
2022-08-30T06:37:30.318Z,97294.28
2022-08-30T06:38:32.281Z,97296.22
2022-08-30T06:39:34.104Z,97301.25
2022-08-30T06:40:37.015Z,97306.06
2022-08-30T06:41:40.394Z,97301.03
2022-08-30T06:42:42.284Z,97306.53
2022-08-30T06:43:48.688Z,97307.66
2022-08-30T06:44:51.470Z,97304.56
2022-08-30T06:45:53.427Z,97311.19
2022-08-30T06:46:55.255Z,97306.72
2022-08-30T06:49:01.139Z,97315.19
2022-08-30T06:50:02.950Z,97310.47
2022-08-30T06:51:05.474Z,97303.09
2022-08-30T06:52:07.329Z,97310.56
2022-08-30T06:53:10.095Z,97307.97
2022-08-30T06:54:12.497Z,97312.00
2022-08-30T06:55:15.319Z,97303.25
2022-08-30T06:56:17.825Z,97306.22
2022-08-30T06:57:19.638Z,97306.88
2022-08-30T06:58:21.458Z,97307.50
2022-08-30T06:59:23.275Z,97316.81
2022-08-30T07:00:25.230Z,97309.69
2022-08-30T07:01:28.419Z,97315.03
2022-08-30T07:02:30.440Z,97313.25
2022-08-30T07:03:32.358Z,97307.97
2022-08-30T07:04:34.550Z,97309.03
2022-08-30T07:05:36.371Z,97308.16
2022-08-30T07:06:38.386Z,97310.78
2022-08-30T07:07:40.390Z,97309.91
2022-08-30T07:08:42.317Z,97307.28
2022-08-30T07:09:44.803Z,97311.53
2022-08-30T07:10:46.925Z,97311.03
2022-08-30T07:11:48.923Z,97308.47
2022-08-30T07:12:50.862Z,97312.22
2022-08-30T07:13:52.702Z,97305.41
2022-08-30T07:14:54.637Z,97303.63
2022-08-30T07:15:56.543Z,97304.44
2022-08-30T07:16:58.505Z,97304.72
2022-08-30T07:18:18.785Z,97311.94
2022-08-30T07:19:21.423Z,97300.56
2022-08-30T07:20:23.423Z,97306.66
2022-08-30T07:21:27.486Z,97312.19
2022-08-30T07:22:29.581Z,97312.09
2022-08-30T07:23:31.488Z,97305.78
2022-08-30T07:24:33.387Z,97310.34
2022-08-30T07:25:36.975Z,97308.25
2022-08-30T07:26:42.907Z,97309.06
2022-08-30T07:27:46.330Z,97308.00
2022-08-30T07:28:48.356Z,97306.47
2022-08-30T07:29:54.201Z,97304.41
2022-08-30T07:30:56.048Z,97303.84
2022-08-30T07:31:57.898Z,97307.94
2022-08-30T07:32:59.761Z,97308.72
2022-08-30T07:34:01.817Z,97308.25
2022-08-30T07:35:03.867Z,97306.97
2022-08-30T07:36:05.885Z,97306.44
2022-08-30T07:37:08.167Z,97304.88
2022-08-30T07:38:12.942Z,97304.38
2022-08-30T07:39:14.738Z,97303.34
2022-08-30T07:40:17.462Z,97302.03
2022-08-30T07:41:21.294Z,97309.25
2022-08-30T07:42:23.200Z,97301.03
2022-08-30T07:43:25.352Z,97306.88
2022-08-30T07:44:27.179Z,97305.13
2022-08-30T07:45:29.222Z,97299.59
2022-08-30T07:46:31.353Z,97301.72
2022-08-30T07:47:33.226Z,97299.63
2022-08-30T07:48:35.632Z,97300.19
2022-08-30T07:49:37.761Z,97293.53
2022-08-30T07:50:43.353Z,97301.00
2022-08-30T07:51:45.310Z,97295.94
2022-08-30T07:52:47.160Z,97298.91
2022-08-30T07:53:49.133Z,97301.03
2022-08-30T07:54:52.813Z,97294.16
2022-08-30T07:55:55.209Z,97300.25
2022-08-30T07:56:57.101Z,97298.41
2022-08-30T07:57:59.272Z,97297.63
2022-08-30T07:59:01.179Z,97297.94
2022-08-30T08:00:03.405Z,97294.03
2022-08-30T08:01:06.679Z,97292.19
2022-08-30T08:02:08.602Z,97297.47
2022-08-30T08:03:10.661Z,97292.19
2022-08-30T08:04:12.528Z,97294.84
2022-08-30T08:05:17.644Z,97291.72
2022-08-30T08:06:21.963Z,97295.47
2022-08-30T08:07:23.895Z,97288.09
2022-08-30T08:08:25.847Z,97287.56
2022-08-30T08:09:27.686Z,97292.38
2022-08-30T08:10:29.510Z,97289.75
2022-08-30T08:11:33.989Z,97299.41
2022-08-30T08:12:36.523Z,97282.22
2022-08-30T08:13:52.987Z,97292.00
2022-08-30T08:14:56.300Z,97294.69
2022-08-30T08:15:58.238Z,97288.59
2022-08-30T08:17:00.527Z,97288.38
2022-08-30T08:18:02.436Z,97291.56
2022-08-30T08:19:09.220Z,97287.63
2022-08-30T08:20:11.545Z,97285.81
2022-08-30T08:21:13.761Z,97287.69
2022-08-30T08:22:20.850Z,97282.69
2022-08-30T08:23:23.302Z,97287.75
2022-08-30T08:24:25.124Z,97281.16
2022-08-30T08:25:27.522Z,97283.00
2022-08-30T08:26:29.439Z,97277.41
2022-08-30T08:27:31.406Z,97275.28
2022-08-30T08:28:33.211Z,97283.22
2022-08-30T08:29:35.095Z,97274.47
2022-08-30T08:30:38.150Z,97282.16
2022-08-30T08:31:41.711Z,97275.59
2022-08-30T08:32:44.052Z,97270.56
2022-08-30T08:33:45.947Z,97268.75
2022-08-30T08:34:47.866Z,97267.97
2022-08-30T08:35:50.068Z,97270.69
2022-08-30T08:36:51.911Z,97264.34
2022-08-30T08:37:53.880Z,97265.69
2022-08-30T08:38:55.791Z,97269.97
2022-08-30T08:39:57.799Z,97264.66
2022-08-30T08:41:03.090Z,97263.94
2022-08-30T08:42:16.879Z,97263.66
2022-08-30T08:43:21.855Z,97263.41
2022-08-30T08:44:34.759Z,97263.97
2022-08-30T08:45:52.184Z,97266.97
2022-08-30T08:47:06.005Z,97262.75
2022-08-30T08:48:08.574Z,97260.38
2022-08-30T08:49:12.176Z,97263.03
2022-08-30T08:50:18.602Z,97255.38
2022-08-30T08:51:43.562Z,97267.31
2022-08-30T08:53:44.446Z,97258.56
2022-08-30T08:54:47.158Z,97260.19
2022-08-30T08:55:50.860Z,97266.28
2022-08-30T08:56:52.762Z,97258.31
2022-08-30T08:57:54.618Z,97256.72
2022-08-30T08:58:58.056Z,97254.59
2022-08-30T08:59:59.945Z,97252.22
2022-08-30T09:01:01.851Z,97247.44
2022-08-30T09:02:19.539Z,97257.81
2022-08-30T09:03:22.730Z,97248.81
2022-08-30T09:04:27.081Z,97246.19
2022-08-30T09:05:31.922Z,97238.78
2022-08-30T09:06:45.504Z,97250.19
2022-08-30T09:07:50.156Z,97245.97
2022-08-30T09:08:52.095Z,97247.31
2022-08-30T09:09:54.165Z,97247.59
2022-08-30T09:11:04.766Z,97250.28
2022-08-30T09:12:07.799Z,97244.72
2022-08-30T09:13:13.727Z,97238.38
2022-08-30T09:14:23.778Z,97248.97
2022-08-30T09:15:33.729Z,97240.75
2022-08-30T09:16:48.357Z,97235.47
2022-08-30T09:17:55.303Z,97236.00
2022-08-30T09:18:57.152Z,97233.59
2022-08-30T09:19:59.977Z,97232.53
2022-08-30T09:21:06.514Z,97221.38
2022-08-30T09:22:17.268Z,97228.81
2022-08-30T09:23:19.145Z,97220.06
2022-08-30T09:24:24.529Z,97233.84
2022-08-30T09:25:29.626Z,97227.75
2022-08-30T09:26:32.958Z,97222.69
2022-08-30T09:27:36.558Z,97228.28
2022-08-30T09:28:49.397Z,97219.78
2022-08-30T09:30:02.020Z,97217.63
2022-08-30T09:31:11.394Z,97221.09
2022-08-30T09:32:25.505Z,97212.81
2022-08-30T09:33:27.721Z,97216.31
2022-08-30T09:34:33.085Z,97219.50
2022-08-30T09:35:42.133Z,97208.03
2022-08-30T09:36:45.662Z,97208.59
2022-08-30T09:37:58.389Z,97197.13
2022-08-30T09:39:01.860Z,97205.34
2022-08-30T09:40:09.808Z,97200.03
2022-08-30T09:41:29.227Z,97200.25
2022-08-30T09:42:31.326Z,97202.66
2022-08-30T09:43:33.926Z,97200.47
2022-08-30T09:44:38.291Z,97196.19
2022-08-30T09:45:42.883Z,97193.53
2022-08-30T09:47:02.984Z,97194.31
2022-08-30T09:48:21.991Z,97190.78
2022-08-30T09:49:43.807Z,97184.91
2022-08-30T09:50:46.742Z,97184.38
2022-08-30T09:51:55.719Z,97187.53
2022-08-30T09:53:00.473Z,97187.75
2022-08-30T09:54:22.615Z,97182.88
2022-08-30T09:55:30.566Z,97184.75
2022-08-30T09:56:51.179Z,97188.38
2022-08-30T09:58:05.308Z,97182.19
2022-08-30T09:59:07.264Z,97179.78
2022-08-30T10:00:14.538Z,97177.56
2022-08-30T10:01:21.148Z,97173.81
2022-08-30T10:02:30.647Z,97178.28
2022-08-30T10:03:40.334Z,97171.09
2022-08-30T10:05:08.848Z,97171.53
2022-08-30T10:06:16.433Z,97168.84
2022-08-30T10:07:29.009Z,97165.84
2022-08-30T10:08:51.532Z,97161.75
2022-08-30T10:10:13.703Z,97164.56
2022-08-30T10:11:32.408Z,97167.34
2022-08-30T10:12:43.283Z,97167.44
2022-08-30T10:13:57.259Z,97162.00
2022-08-30T10:15:09.424Z,97165.13
2022-08-30T10:16:29.355Z,97151.13
2022-08-30T10:17:49.618Z,97149.19
2022-08-30T10:19:02.139Z,97148.84
2022-08-30T10:20:17.346Z,97153.38
2022-08-30T10:21:26.240Z,97153.03
2022-08-30T10:22:36.387Z,97148.63
2022-08-30T10:23:42.970Z,97152.03
2022-08-30T10:24:56.240Z,97141.47
2022-08-30T10:26:05.917Z,97143.78
2022-08-30T10:27:07.770Z,97143.75
2022-08-30T10:28:28.258Z,97140.69
2022-08-30T10:29:32.996Z,97143.28
2022-08-30T10:30:38.498Z,97141.53
2022-08-30T10:31:41.600Z,97136.91
2022-08-30T10:32:52.416Z,97141.56
2022-08-30T10:33:57.468Z,97139.31
2022-08-30T10:35:06.483Z,97141.59
2022-08-30T10:36:13.702Z,97140.72
2022-08-30T10:37:19.673Z,97137.34
2022-08-30T10:38:24.802Z,97132.50
2022-08-30T10:39:30.874Z,97138.59
2022-08-30T10:41:01.396Z,97133.16
2022-08-30T10:42:09.545Z,97130.28
2022-08-30T10:43:21.128Z,97123.06
2022-08-30T10:44:27.701Z,97120.75
2022-08-30T10:45:30.815Z,97124.34
2022-08-30T10:46:41.490Z,97122.16
2022-08-30T10:47:58.062Z,97124.63
2022-08-30T10:49:02.279Z,97122.84
2022-08-30T10:50:16.808Z,97127.28
2022-08-30T10:51:26.017Z,97123.16
2022-08-30T10:52:27.801Z,97119.75
2022-08-30T10:53:37.517Z,97121.84
2022-08-30T10:54:39.466Z,97123.66
2022-08-30T10:56:02.987Z,97124.34
2022-08-30T10:57:04.858Z,97131.31
2022-08-30T10:58:06.951Z,97121.91
2022-08-30T10:59:12.011Z,97125.88
2022-08-30T11:00:25.161Z,97122.56
2022-08-30T11:01:36.533Z,97115.22
2022-08-30T11:02:44.372Z,97120.19
2022-08-30T11:03:55.542Z,97115.66
2022-08-30T11:05:17.608Z,97116.06
2022-08-30T11:06:27.596Z,97118.03
2022-08-30T11:07:52.051Z,97111.44
2022-08-30T11:09:03.036Z,97119.34
2022-08-30T11:10:40.363Z,97116.38
2022-08-30T11:11:52.246Z,97114.84
2022-08-30T11:13:05.771Z,97110.56
2022-08-30T11:14:09.862Z,97108.56
2022-08-30T11:15:23.614Z,97111.91
2022-08-30T11:16:39.725Z,97107.22
2022-08-30T11:17:45.927Z,97113.41
2022-08-30T11:18:57.800Z,97113.75
2022-08-30T11:20:01.667Z,97111.09
2022-08-30T11:21:24.960Z,97108.94
2022-08-30T11:22:38.785Z,97103.94
2022-08-30T11:23:41.233Z,97105.84
2022-08-30T11:24:59.606Z,97108.56
2022-08-30T11:26:07.531Z,97110.16
2022-08-30T11:27:11.498Z,97107.97
2022-08-30T11:28:33.368Z,97097.53
2022-08-30T11:29:38.147Z,97104.03
2022-08-30T11:30:39.916Z,97104.38
2022-08-30T11:31:42.379Z,97102.97
2022-08-30T11:33:02.322Z,97100.13
2022-08-30T11:34:04.798Z,97094.75
2022-08-30T11:35:06.746Z,97089.84
2022-08-30T11:36:37.793Z,97097.13
2022-08-30T11:37:42.020Z,97089.72
2022-08-30T11:38:44.594Z,97096.50
2022-08-30T11:39:49.288Z,97092.59
2022-08-30T11:41:11.365Z,97089.13
2022-08-30T11:42:24.941Z,97093.88
2022-08-30T11:43:34.597Z,97091.50
2022-08-30T11:44:38.545Z,97089.28
2022-08-30T11:45:44.536Z,97083.28
2022-08-30T11:46:46.839Z,97094.34
2022-08-30T11:47:53.314Z,97088.50
2022-08-30T11:49:03.072Z,97091.19
2022-08-30T11:50:29.335Z,97088.50
2022-08-30T11:51:40.827Z,97091.03
2022-08-30T11:52:51.352Z,97085.97
2022-08-30T11:54:01.086Z,97088.50
2022-08-30T11:55:02.943Z,97084.69
2022-08-30T11:56:19.099Z,97093.25
2022-08-30T11:57:31.925Z,97094.34
2022-08-30T11:58:52.352Z,97090.41
2022-08-30T11:59:54.133Z,97090.53
2022-08-30T12:01:40.797Z,97094.50
2022-08-30T12:02:52.732Z,97091.50
2022-08-30T12:03:56.916Z,97092.78
2022-08-30T12:04:58.857Z,97090.09
2022-08-30T12:06:05.238Z,97090.06
2022-08-30T12:07:08.207Z,97089.56
2022-08-30T12:08:11.654Z,97086.41
2022-08-30T12:09:16.711Z,97086.09
2022-08-30T12:10:23.806Z,97077.19
2022-08-30T12:11:32.593Z,97084.00
2022-08-30T12:12:46.886Z,97078.28
2022-08-30T12:13:49.519Z,97079.09
2022-08-30T12:14:55.025Z,97077.94
2022-08-30T12:15:57.289Z,97076.88
2022-08-30T12:17:18.126Z,97079.25
2022-08-30T12:18:29.801Z,97080.56
2022-08-30T12:19:32.743Z,97071.38
2022-08-30T12:20:43.056Z,97081.03
2022-08-30T12:21:54.764Z,97072.50
2022-08-30T12:22:57.830Z,97067.72
2022-08-30T12:24:07.838Z,97074.97
2022-08-30T12:25:40.770Z,97069.91
2022-08-30T12:26:43.723Z,97068.94
2022-08-30T12:27:45.863Z,97068.94
2022-08-30T12:28:51.998Z,97069.22
2022-08-30T12:29:55.776Z,97069.38
2022-08-30T12:31:15.401Z,97067.47
2022-08-30T12:32:19.555Z,97070.63
2022-08-30T12:33:36.583Z,97060.97
2022-08-30T12:34:45.966Z,97064.13
2022-08-30T12:35:47.782Z,97063.63
2022-08-30T12:36:51.855Z,97065.34
2022-08-30T12:37:58.967Z,97057.47
2022-08-30T12:39:11.464Z,97050.72
2022-08-30T12:40:22.869Z,97057.47
2022-08-30T12:41:24.966Z,97058.09
2022-08-30T12:42:28.311Z,97056.78
2022-08-30T12:43:38.890Z,97056.63